createdAt,value
2019-03-23T00:00:20.756Z,56.40
2019-03-23T00:01:25.639Z,56.02
2019-03-23T00:02:31.457Z,55.96
2019-03-23T00:03:35.786Z,55.90
2019-03-23T00:04:40.330Z,55.94
2019-03-23T00:05:44.617Z,55.71
2019-03-23T00:06:48.794Z,56.08
2019-03-23T00:07:53.155Z,56.00
2019-03-23T00:08:57.326Z,55.94
2019-03-23T00:10:01.550Z,56.06
2019-03-23T00:11:05.783Z,55.96
2019-03-23T00:12:10.205Z,56.10
2019-03-23T00:13:14.541Z,56.16
2019-03-23T00:14:18.718Z,56.25
2019-03-23T00:15:23.902Z,55.93
2019-03-23T00:16:28.144Z,55.94
2019-03-23T00:17:32.339Z,55.83
2019-03-23T00:18:36.582Z,55.68
2019-03-23T00:19:40.879Z,55.82
2019-03-23T00:20:45.285Z,56.02
2019-03-23T00:21:49.485Z,56.29
2019-03-23T00:22:53.658Z,56.32
2019-03-23T00:23:57.841Z,56.31
2019-03-23T00:25:02.087Z,56.42
2019-03-23T00:26:06.362Z,56.65
2019-03-23T00:27:10.614Z,56.50
2019-03-23T00:28:16.426Z,56.28
2019-03-23T00:29:23.096Z,56.01
2019-03-23T00:30:27.250Z,55.89
2019-03-23T00:31:31.702Z,56.03
2019-03-23T00:32:36.901Z,56.17
2019-03-23T00:33:41.122Z,55.97
2019-03-23T00:34:45.253Z,56.44
2019-03-23T00:35:49.751Z,56.50
2019-03-23T00:36:55.093Z,56.42
2019-03-23T00:37:59.638Z,56.61
2019-03-23T00:39:05.843Z,56.45
2019-03-23T00:40:10.256Z,56.89
2019-03-23T00:41:17.361Z,56.70
2019-03-23T00:42:21.607Z,56.54
2019-03-23T00:43:25.980Z,56.46
2019-03-23T00:44:30.155Z,56.99
2019-03-23T00:45:34.339Z,56.39
2019-03-23T00:46:38.721Z,55.79
2019-03-23T00:47:42.894Z,56.26
2019-03-23T00:48:48.909Z,56.58
2019-03-23T00:49:53.178Z,57.05
2019-03-23T00:50:57.422Z,56.74
2019-03-23T00:52:01.603Z,57.17
2019-03-23T00:53:05.813Z,57.05
2019-03-23T00:54:10.166Z,56.83
2019-03-23T00:55:14.435Z,57.04
2019-03-23T00:56:18.610Z,56.92
2019-03-23T00:57:24.418Z,57.24
2019-03-23T00:58:28.704Z,57.46
2019-03-23T00:59:32.845Z,57.30
2019-03-23T01:00:37.090Z,57.14
2019-03-23T01:01:41.259Z,57.25
2019-03-23T01:02:45.524Z,57.21
2019-03-23T01:03:49.879Z,57.34
2019-03-23T01:04:54.060Z,58.00
2019-03-23T01:05:58.247Z,58.68
2019-03-23T01:07:02.495Z,58.49
2019-03-23T01:08:06.675Z,58.23
2019-03-23T01:09:10.990Z,58.13
2019-03-23T01:10:15.168Z,57.94
2019-03-23T01:11:19.347Z,57.90
2019-03-23T01:12:23.687Z,57.63
2019-03-23T01:13:27.873Z,57.52
2019-03-23T01:14:32.543Z,57.60
2019-03-23T01:15:37.084Z,58.07
2019-03-23T01:16:41.195Z,58.10
2019-03-23T01:17:46.997Z,58.00
2019-03-23T01:18:51.173Z,58.58
2019-03-23T01:19:55.388Z,59.21
2019-03-23T01:20:59.600Z,59.52
2019-03-23T01:22:03.787Z,59.43
2019-03-23T01:23:08.910Z,58.88
2019-03-23T01:24:13.090Z,58.85
2019-03-23T01:25:17.406Z,58.87
2019-03-23T01:26:21.592Z,59.10
2019-03-23T01:27:25.770Z,59.49
2019-03-23T01:28:30.334Z,59.36
2019-03-23T01:29:34.557Z,59.13
2019-03-23T01:30:38.767Z,59.51
2019-03-23T01:31:42.965Z,59.49
2019-03-23T01:32:47.144Z,59.82
2019-03-23T01:33:53.060Z,59.52
2019-03-23T01:34:57.266Z,59.18
2019-03-23T01:36:01.562Z,59.12
2019-03-23T01:37:05.734Z,59.44
2019-03-23T01:38:09.905Z,59.46
2019-03-23T01:39:14.078Z,59.31
2019-03-23T01:40:18.255Z,59.16
2019-03-23T01:41:24.098Z,59.15
2019-03-23T01:42:29.245Z,59.19
2019-03-23T01:43:33.425Z,59.28
2019-03-23T01:44:39.317Z,59.14
2019-03-23T01:45:43.532Z,59.03
2019-03-23T01:46:47.918Z,59.14
2019-03-23T01:47:52.184Z,59.26
2019-03-23T01:48:56.371Z,59.05
2019-03-23T01:50:00.602Z,58.94
2019-03-23T01:51:04.858Z,59.12
2019-03-23T01:52:09.454Z,59.13
2019-03-23T01:53:16.625Z,58.67
2019-03-23T01:54:21.714Z,58.34
2019-03-23T01:55:27.001Z,58.58
2019-03-23T01:56:31.247Z,58.62
2019-03-23T01:57:37.249Z,58.95
2019-03-23T01:58:41.698Z,59.26
2019-03-23T01:59:45.883Z,58.89
2019-03-23T02:00:50.186Z,58.46
2019-03-23T02:01:54.365Z,58.15
2019-03-23T02:02:58.870Z,57.99
2019-03-23T02:04:03.043Z,57.73
2019-03-23T02:05:08.848Z,57.74
2019-03-23T02:06:13.042Z,57.46
2019-03-23T02:07:17.205Z,57.49
2019-03-23T02:08:23.056Z,57.47
2019-03-23T02:09:27.229Z,57.41
2019-03-23T02:10:33.019Z,57.29
2019-03-23T02:11:37.345Z,56.92
2019-03-23T02:12:41.596Z,57.41
2019-03-23T02:13:47.175Z,57.85
2019-03-23T02:14:51.649Z,58.14
2019-03-23T02:15:56.150Z,58.57
2019-03-23T02:17:00.329Z,58.35
2019-03-23T02:18:06.402Z,57.89
2019-03-23T02:19:10.648Z,57.81
2019-03-23T02:20:14.901Z,57.70
2019-03-23T02:21:19.076Z,57.88
2019-03-23T02:22:23.659Z,57.75
2019-03-23T02:23:29.347Z,58.79
2019-03-23T02:24:33.939Z,59.04
2019-03-23T02:25:38.110Z,59.22
2019-03-23T02:26:42.285Z,58.65
2019-03-23T02:27:46.458Z,59.10
2019-03-23T02:28:50.702Z,59.18
2019-03-23T02:29:56.530Z,59.47
2019-03-23T02:31:02.353Z,59.67
2019-03-23T02:32:06.697Z,59.40
2019-03-23T02:33:10.900Z,59.04
2019-03-23T02:34:16.261Z,58.76
2019-03-23T02:35:20.717Z,58.67
2019-03-23T02:36:24.910Z,58.57
2019-03-23T02:37:29.088Z,58.79
2019-03-23T02:38:33.420Z,58.87
2019-03-23T02:39:37.604Z,58.71
2019-03-23T02:40:42.208Z,58.93
2019-03-23T02:41:46.392Z,59.63
2019-03-23T02:42:50.696Z,59.41
2019-03-23T02:43:54.870Z,59.41
2019-03-23T02:45:00.678Z,59.44
2019-03-23T02:46:04.855Z,59.45
2019-03-23T02:47:09.073Z,59.51
2019-03-23T02:48:13.241Z,59.63
2019-03-23T02:49:17.485Z,59.83
2019-03-23T02:50:22.634Z,60.28
2019-03-23T02:51:26.810Z,60.26
2019-03-23T02:52:30.991Z,60.00
2019-03-23T02:53:36.431Z,59.83
2019-03-23T02:54:40.607Z,59.90
2019-03-23T02:55:44.955Z,60.00
2019-03-23T02:56:49.125Z,60.00
2019-03-23T02:57:54.690Z,60.12
2019-03-23T02:58:58.909Z,60.26
2019-03-23T03:00:04.223Z,60.67
2019-03-23T03:01:10.022Z,60.85
2019-03-23T03:02:17.313Z,60.92
2019-03-23T03:03:21.850Z,60.70
2019-03-23T03:04:29.476Z,61.07
2019-03-23T03:05:35.870Z,61.06
2019-03-23T03:06:40.042Z,61.04
2019-03-23T03:07:44.361Z,61.12
2019-03-23T03:08:49.637Z,61.12
2019-03-23T03:09:53.976Z,61.11
2019-03-23T03:10:58.140Z,61.36
2019-03-23T03:12:02.311Z,61.36
2019-03-23T03:13:06.826Z,61.20
2019-03-23T03:14:11.071Z,60.70
2019-03-23T03:15:15.278Z,60.49
2019-03-23T03:16:19.524Z,60.72
2019-03-23T03:17:23.701Z,60.74
2019-03-23T03:18:27.877Z,60.52
2019-03-23T03:19:32.136Z,60.63
2019-03-23T03:20:38.061Z,60.72
2019-03-23T03:21:42.262Z,60.52
2019-03-23T03:22:46.437Z,60.70
2019-03-23T03:23:50.719Z,60.97
2019-03-23T03:24:55.188Z,60.92
2019-03-23T03:26:02.413Z,60.27
2019-03-23T03:27:06.923Z,60.21
2019-03-23T03:28:11.099Z,60.09
2019-03-23T03:29:15.279Z,60.12
2019-03-23T03:30:19.462Z,60.07
2019-03-23T03:31:25.406Z,60.51
2019-03-23T03:32:29.578Z,60.64
2019-03-23T03:33:34.818Z,60.37
2019-03-23T03:34:38.996Z,60.31
2019-03-23T03:35:43.166Z,60.51
2019-03-23T03:36:47.388Z,60.46
2019-03-23T03:37:56.960Z,60.47
2019-03-23T03:38:57.565Z,60.72
2019-03-23T03:40:01.773Z,60.85
2019-03-23T03:41:08.697Z,61.08
2019-03-23T03:42:12.956Z,61.13
2019-03-23T03:43:17.204Z,61.12
2019-03-23T03:44:23.065Z,61.09
2019-03-23T03:45:28.009Z,60.89
2019-03-23T03:46:32.184Z,61.21
2019-03-23T03:47:41.078Z,61.35
2019-03-23T03:48:44.077Z,60.98
2019-03-23T03:49:48.316Z,61.62
2019-03-23T03:50:52.443Z,61.88
2019-03-23T03:51:56.619Z,61.62
2019-03-23T03:53:00.817Z,61.50
2019-03-23T03:54:05.124Z,61.79
2019-03-23T03:55:09.331Z,61.44
2019-03-23T03:56:13.574Z,61.62
2019-03-23T03:57:19.164Z,61.91
2019-03-23T03:58:23.404Z,61.83
2019-03-23T03:59:28.161Z,61.91
2019-03-23T04:00:32.372Z,61.88
2019-03-23T04:01:36.617Z,62.01
2019-03-23T04:02:40.825Z,61.85
2019-03-23T04:03:46.087Z,61.66
2019-03-23T04:04:52.199Z,61.63
2019-03-23T04:05:56.411Z,61.80
2019-03-23T04:07:00.582Z,61.76
2019-03-23T04:08:11.300Z,61.45
2019-03-23T04:09:10.641Z,61.50
2019-03-23T04:10:14.876Z,61.55
2019-03-23T04:11:19.108Z,61.45
2019-03-23T04:12:23.335Z,61.41
2019-03-23T04:13:27.514Z,61.77
2019-03-23T04:14:31.732Z,62.33
2019-03-23T04:15:35.916Z,62.62
2019-03-23T04:16:40.124Z,62.80
2019-03-23T04:17:44.399Z,62.78
2019-03-23T04:18:48.602Z,62.72
2019-03-23T04:19:52.779Z,62.34
2019-03-23T04:20:56.956Z,62.84
2019-03-23T04:22:01.462Z,62.56
2019-03-23T04:23:05.649Z,62.86
2019-03-23T04:24:09.831Z,62.65
2019-03-23T04:25:14.003Z,62.75
2019-03-23T04:26:18.184Z,62.84
2019-03-23T04:27:22.728Z,62.80
2019-03-23T04:28:26.872Z,63.12
2019-03-23T04:29:31.051Z,63.26
2019-03-23T04:30:35.399Z,63.45
2019-03-23T04:31:39.577Z,63.58
2019-03-23T04:32:43.847Z,64.14
2019-03-23T04:33:48.043Z,64.91
2019-03-23T04:34:52.250Z,64.85
2019-03-23T04:35:56.445Z,64.37
2019-03-23T04:37:01.687Z,64.31
2019-03-23T04:38:06.011Z,64.50
2019-03-23T04:39:10.503Z,64.34
2019-03-23T04:40:14.762Z,64.33
2019-03-23T04:41:18.956Z,64.29
2019-03-23T04:42:23.142Z,64.53
2019-03-23T04:43:27.430Z,63.93
2019-03-23T04:44:31.608Z,63.99
2019-03-23T04:45:35.784Z,63.92
2019-03-23T04:46:39.963Z,63.74
2019-03-23T04:47:44.146Z,64.02
2019-03-23T04:48:48.749Z,64.09
2019-03-23T04:49:52.993Z,64.14
2019-03-23T04:50:57.172Z,64.09
2019-03-23T04:52:01.350Z,64.45
2019-03-23T04:53:05.543Z,64.91
2019-03-23T04:54:09.741Z,65.08
2019-03-23T04:55:14.085Z,65.33
2019-03-23T04:56:18.305Z,65.00
2019-03-23T04:57:22.549Z,64.62
2019-03-23T04:58:26.775Z,64.42
2019-03-23T04:59:31.027Z,64.40
2019-03-23T05:00:35.434Z,64.60
2019-03-23T05:01:39.664Z,64.73
2019-03-23T05:02:43.860Z,65.11
2019-03-23T05:03:48.013Z,65.56
2019-03-23T05:04:52.245Z,65.73
2019-03-23T05:05:56.397Z,65.75
2019-03-23T05:07:00.576Z,65.92
2019-03-23T05:08:04.817Z,65.75
2019-03-23T05:09:09.466Z,65.82
2019-03-23T05:10:13.731Z,65.44
2019-03-23T05:11:17.955Z,65.03
2019-03-23T05:12:22.200Z,65.27
2019-03-23T05:13:26.482Z,65.18
2019-03-23T05:14:30.687Z,65.38
2019-03-23T05:15:37.220Z,65.24
2019-03-23T05:16:41.610Z,65.91
2019-03-23T05:17:45.785Z,65.73
2019-03-23T05:18:51.577Z,65.95
2019-03-23T05:19:57.316Z,66.00
2019-03-23T05:21:01.499Z,65.75
2019-03-23T05:22:05.819Z,65.57
2019-03-23T05:23:09.994Z,65.34
2019-03-23T05:24:14.240Z,65.41
2019-03-23T05:25:21.674Z,66.04
2019-03-23T05:26:25.944Z,65.81
2019-03-23T05:27:30.097Z,65.86
2019-03-23T05:28:34.385Z,65.80
2019-03-23T05:29:38.551Z,65.51
2019-03-23T05:30:42.814Z,65.37
2019-03-23T05:31:47.203Z,65.50
2019-03-23T05:32:53.013Z,65.44
2019-03-23T05:33:57.567Z,65.82
2019-03-23T05:35:01.829Z,65.59
2019-03-23T05:36:06.083Z,65.44
2019-03-23T05:37:11.065Z,65.37
2019-03-23T05:38:15.239Z,65.50
2019-03-23T05:39:19.566Z,65.41
2019-03-23T05:40:23.800Z,65.80
2019-03-23T05:41:30.815Z,65.84
2019-03-23T05:42:34.669Z,66.00
2019-03-23T05:43:38.854Z,65.72
2019-03-23T05:44:43.030Z,65.62
2019-03-23T05:45:47.547Z,65.61
2019-03-23T05:46:54.176Z,65.52
2019-03-23T05:47:57.652Z,66.08
2019-03-23T05:49:01.820Z,66.09
2019-03-23T05:50:07.339Z,66.41
2019-03-23T05:51:11.620Z,66.31
2019-03-23T05:52:15.822Z,66.31
2019-03-23T05:53:21.066Z,65.86
2019-03-23T05:54:25.276Z,65.63
2019-03-23T05:55:30.389Z,65.65
2019-03-23T05:56:36.198Z,65.60
2019-03-23T05:57:40.398Z,65.37
2019-03-23T05:58:44.574Z,65.08
2019-03-23T05:59:48.860Z,64.83
2019-03-23T06:00:52.988Z,64.91
2019-03-23T06:01:57.231Z,64.94
2019-03-23T06:03:01.634Z,64.93
2019-03-23T06:04:07.423Z,64.89
2019-03-23T06:05:12.542Z,64.67
2019-03-23T06:06:16.716Z,64.85
2019-03-23T06:07:22.589Z,64.95
2019-03-23T06:08:26.859Z,65.07
2019-03-23T06:09:31.039Z,64.80
2019-03-23T06:10:35.259Z,64.95
2019-03-23T06:11:39.502Z,65.80
2019-03-23T06:12:43.673Z,65.34
2019-03-23T06:13:48.006Z,65.58
2019-03-23T06:14:52.321Z,64.54
2019-03-23T06:15:56.705Z,64.65
2019-03-23T06:17:00.941Z,64.12
2019-03-23T06:18:06.751Z,64.32
2019-03-23T06:19:11.049Z,63.84
2019-03-23T06:20:16.017Z,63.48
2019-03-23T06:21:20.331Z,63.48
2019-03-23T06:22:24.609Z,63.22
2019-03-23T06:23:28.778Z,62.79
2019-03-23T06:24:33.017Z,62.68
2019-03-23T06:25:37.372Z,62.51
2019-03-23T06:26:41.734Z,62.08
2019-03-23T06:27:45.954Z,61.99
2019-03-23T06:28:51.827Z,62.34
2019-03-23T06:29:56.061Z,62.38
2019-03-23T06:31:00.274Z,62.25
2019-03-23T06:32:04.571Z,61.59
2019-03-23T06:33:08.750Z,62.00
2019-03-23T06:34:12.998Z,61.55
2019-03-23T06:35:17.300Z,61.42
2019-03-23T06:36:21.661Z,61.42
2019-03-23T06:37:26.192Z,61.49
2019-03-23T06:38:30.366Z,61.42
2019-03-23T06:39:34.681Z,61.17
2019-03-23T06:40:38.941Z,60.99
2019-03-23T06:41:43.142Z,61.21
2019-03-23T06:42:47.432Z,61.38
2019-03-23T06:43:51.619Z,60.93
2019-03-23T06:44:56.000Z,60.92
2019-03-23T06:46:00.174Z,60.92
2019-03-23T06:47:04.562Z,60.75
2019-03-23T06:48:08.721Z,61.43
2019-03-23T06:49:12.891Z,61.84
2019-03-23T06:50:17.069Z,62.00
2019-03-23T06:51:21.252Z,61.48
2019-03-23T06:52:25.470Z,62.47
2019-03-23T06:53:29.642Z,62.61
2019-03-23T06:54:33.815Z,61.71
2019-03-23T06:55:38.003Z,62.18
2019-03-23T06:56:42.197Z,62.24
2019-03-23T06:57:46.370Z,62.58
2019-03-23T06:58:50.628Z,61.76
2019-03-23T06:59:54.788Z,62.14
2019-03-23T07:00:59.017Z,61.69
2019-03-23T07:02:04.005Z,62.25
2019-03-23T07:03:08.211Z,61.94
2019-03-23T07:04:12.383Z,61.57
2019-03-23T07:05:16.562Z,61.31
2019-03-23T07:06:20.809Z,61.08
2019-03-23T07:07:24.988Z,60.75
2019-03-23T07:08:32.083Z,60.38
2019-03-23T07:09:35.420Z,60.54
2019-03-23T07:10:40.565Z,60.14
2019-03-23T07:11:44.738Z,60.45
2019-03-23T07:12:48.995Z,60.56
2019-03-23T07:13:53.229Z,60.01
2019-03-23T07:14:57.404Z,59.76
2019-03-23T07:16:01.607Z,59.12
2019-03-23T07:17:05.948Z,58.95
2019-03-23T07:18:10.126Z,58.77
2019-03-23T07:19:14.411Z,59.18
2019-03-23T07:20:18.919Z,58.80
2019-03-23T07:21:23.098Z,58.23
2019-03-23T07:22:27.343Z,57.82
2019-03-23T07:23:31.523Z,57.55
2019-03-23T07:24:35.867Z,57.07
2019-03-23T07:25:40.045Z,57.06
2019-03-23T07:26:44.297Z,56.52
2019-03-23T07:27:48.506Z,56.76
2019-03-23T07:28:52.693Z,56.89
2019-03-23T07:29:56.968Z,56.60
2019-03-23T07:31:01.145Z,56.38
2019-03-23T07:32:06.252Z,56.31
2019-03-23T07:33:10.570Z,55.80
2019-03-23T07:34:14.753Z,56.12
2019-03-23T07:35:18.996Z,55.29
2019-03-23T07:36:23.120Z,55.54
2019-03-23T07:37:27.374Z,56.47
2019-03-23T07:38:31.594Z,56.48
2019-03-23T07:39:37.408Z,55.77
2019-03-23T07:40:41.710Z,55.62
2019-03-23T07:41:47.502Z,55.37
2019-03-23T07:42:51.754Z,54.72
2019-03-23T07:43:55.991Z,54.16
2019-03-23T07:45:00.339Z,53.45
2019-03-23T07:46:06.224Z,52.51
2019-03-23T07:47:10.453Z,52.80
2019-03-23T07:48:14.591Z,53.17
2019-03-23T07:49:18.791Z,52.62
2019-03-23T07:50:23.039Z,52.65
2019-03-23T07:51:27.291Z,52.46
2019-03-23T07:52:31.536Z,51.56
2019-03-23T07:53:38.316Z,51.20
2019-03-23T07:54:42.516Z,49.93
2019-03-23T07:55:46.787Z,50.11
2019-03-23T07:56:51.034Z,49.39
2019-03-23T07:57:55.240Z,49.34
2019-03-23T07:58:59.595Z,49.45
2019-03-23T08:00:07.214Z,49.36
2019-03-23T08:01:11.416Z,48.93
2019-03-23T08:02:15.597Z,48.27
2019-03-23T08:03:19.834Z,48.39
2019-03-23T08:04:23.993Z,47.97
2019-03-23T08:05:28.245Z,47.79
2019-03-23T08:06:32.429Z,47.35
2019-03-23T08:07:36.723Z,47.13
2019-03-23T08:08:41.972Z,47.15
2019-03-23T08:09:46.217Z,46.88
2019-03-23T08:10:51.407Z,46.60
2019-03-23T08:11:55.595Z,46.64
2019-03-23T08:13:00.199Z,46.67
2019-03-23T08:14:04.369Z,46.76
2019-03-23T08:15:13.742Z,46.02
2019-03-23T08:16:17.895Z,45.76
2019-03-23T08:17:22.078Z,46.01
2019-03-23T08:18:26.292Z,45.64
2019-03-23T08:19:30.480Z,45.29
2019-03-23T08:20:34.841Z,44.82
2019-03-23T08:21:39.011Z,44.42
2019-03-23T08:22:44.842Z,44.61
2019-03-23T08:23:49.085Z,44.83
2019-03-23T08:24:53.224Z,43.94
2019-03-23T08:25:57.407Z,43.84
2019-03-23T08:27:01.656Z,43.78
2019-03-23T08:28:06.431Z,43.64
2019-03-23T08:29:10.642Z,43.32
2019-03-23T08:30:14.826Z,43.57
2019-03-23T08:31:19.004Z,43.59
2019-03-23T08:32:23.252Z,43.72
2019-03-23T08:33:27.513Z,42.38
2019-03-23T08:34:31.717Z,42.36
2019-03-23T08:35:35.962Z,42.74
2019-03-23T08:36:40.139Z,42.87
2019-03-23T08:37:44.390Z,43.18
2019-03-23T08:38:48.579Z,44.25
2019-03-23T08:39:52.807Z,43.64
2019-03-23T08:40:57.383Z,42.71
2019-03-23T08:42:01.568Z,42.85
2019-03-23T08:43:05.914Z,42.13
2019-03-23T08:44:10.099Z,40.62
2019-03-23T08:45:14.305Z,41.42
2019-03-23T08:46:18.481Z,41.80
2019-03-23T08:47:22.660Z,41.00
2019-03-23T08:48:27.043Z,40.86
2019-03-23T08:49:31.293Z,40.30
2019-03-23T08:50:35.537Z,40.29
2019-03-23T08:51:39.724Z,40.15
2019-03-23T08:52:43.976Z,40.79
2019-03-23T08:53:48.727Z,39.82
2019-03-23T08:54:52.912Z,39.82
2019-03-23T08:55:57.158Z,40.18
2019-03-23T08:57:01.412Z,39.63
2019-03-23T08:58:05.668Z,39.66
2019-03-23T08:59:09.882Z,39.83
2019-03-23T09:00:14.127Z,39.54
2019-03-23T09:01:18.374Z,39.17
2019-03-23T09:02:22.628Z,39.91
2019-03-23T09:03:28.439Z,39.02
2019-03-23T09:04:32.880Z,37.99
2019-03-23T09:05:37.129Z,38.54
2019-03-23T09:06:41.522Z,37.45
2019-03-23T09:07:47.190Z,37.74
2019-03-23T09:08:51.412Z,37.88
2019-03-23T09:09:59.411Z,37.21
2019-03-23T09:11:01.564Z,37.22
2019-03-23T09:12:05.744Z,37.74
2019-03-23T09:13:10.991Z,34.81
2019-03-23T09:14:15.184Z,32.91
2019-03-23T09:15:20.453Z,37.57
2019-03-23T09:16:24.564Z,37.41
2019-03-23T09:17:29.154Z,29.26
2019-03-23T09:18:35.144Z,25.81
2019-03-23T09:19:39.334Z,22.84
2019-03-23T09:20:43.513Z,20.94
2019-03-23T09:21:49.534Z,19.49
2019-03-23T09:22:53.808Z,19.06
2019-03-23T09:23:58.128Z,17.88
2019-03-23T09:25:02.480Z,17.78
2019-03-23T09:26:06.727Z,17.42
2019-03-23T09:27:12.639Z,17.90
2019-03-23T09:28:21.976Z,17.96
2019-03-23T10:02:31.126Z,28.07
2019-03-23T10:03:36.142Z,24.25
2019-03-23T10:04:40.325Z,21.77
2019-03-23T10:05:44.604Z,19.35
2019-03-23T10:06:48.786Z,17.71
2019-03-23T10:07:52.974Z,16.15
2019-03-23T10:08:58.124Z,13.73
2019-03-23T10:10:02.430Z,13.04
2019-03-23T10:11:07.676Z,12.71
2019-03-23T10:12:11.855Z,13.56
2019-03-23T10:13:16.031Z,12.84
2019-03-23T10:14:20.294Z,12.42
2019-03-23T10:15:24.475Z,12.74
2019-03-23T10:16:28.771Z,13.06
2019-03-23T10:17:33.023Z,13.29
2019-03-23T10:18:37.275Z,13.63
2019-03-23T10:19:41.450Z,13.71
2019-03-23T10:20:45.629Z,13.90
2019-03-23T10:21:49.935Z,14.34
2019-03-23T10:22:54.182Z,14.33
2019-03-23T10:23:58.368Z,14.55
2019-03-23T10:25:02.547Z,14.74
2019-03-23T10:26:07.803Z,14.72
2019-03-23T10:27:12.102Z,15.17
2019-03-23T10:28:16.313Z,15.25
2019-03-23T10:29:21.431Z,15.11
2019-03-23T10:30:25.659Z,15.46
2019-03-23T10:31:29.842Z,15.41
2019-03-23T10:32:34.109Z,15.37
2019-03-23T10:33:38.294Z,15.58
2019-03-23T10:34:42.482Z,15.79
2019-03-23T10:35:46.703Z,15.98
2019-03-23T10:36:50.958Z,15.99
2019-03-23T10:37:55.187Z,15.71
2019-03-23T10:38:59.464Z,16.05
2019-03-23T10:40:07.484Z,16.28
2019-03-23T10:41:11.811Z,16.37
2019-03-23T10:42:16.332Z,16.43
2019-03-23T10:43:20.620Z,16.25
2019-03-23T10:44:24.862Z,16.39
2019-03-23T10:45:29.048Z,16.50
2019-03-23T10:46:33.325Z,16.44
2019-03-23T10:47:37.719Z,16.22
2019-03-23T10:48:41.873Z,16.28
2019-03-23T10:49:46.047Z,16.32
2019-03-23T10:50:50.320Z,16.09
2019-03-23T10:51:54.534Z,16.07
2019-03-23T10:52:58.732Z,16.20
2019-03-23T10:54:04.129Z,16.06
2019-03-23T10:55:09.337Z,15.91
2019-03-23T10:56:13.613Z,15.46
2019-03-23T10:57:17.882Z,15.67
2019-03-23T10:58:22.122Z,15.34
2019-03-23T10:59:27.975Z,15.77
2019-03-23T11:00:32.285Z,16.27
2019-03-23T11:01:36.461Z,16.05
2019-03-23T11:02:40.639Z,16.38
2019-03-23T11:03:44.821Z,16.80
2019-03-23T11:04:49.122Z,17.10
2019-03-23T11:05:53.306Z,17.31
2019-03-23T11:06:57.557Z,17.35
2019-03-23T11:08:01.754Z,17.64
2019-03-23T11:09:06.698Z,17.42
2019-03-23T11:10:13.040Z,17.54
2019-03-23T11:11:18.262Z,17.39
2019-03-23T11:12:22.441Z,16.86
2019-03-23T11:13:26.624Z,17.26
2019-03-23T11:14:30.799Z,17.31
2019-03-23T11:15:35.006Z,17.51
2019-03-23T11:16:39.181Z,17.67
2019-03-23T11:17:43.430Z,17.23
2019-03-23T11:18:47.617Z,17.26
2019-03-23T11:19:51.801Z,17.17
2019-03-23T11:20:56.000Z,16.82
2019-03-23T11:22:00.183Z,16.88
2019-03-23T11:23:04.882Z,17.04
2019-03-23T11:24:09.062Z,17.18
2019-03-23T11:25:13.315Z,17.43
2019-03-23T11:26:17.525Z,17.27
2019-03-23T11:27:21.773Z,17.88
2019-03-23T11:28:26.023Z,17.47
2019-03-23T11:29:30.205Z,17.47
2019-03-23T11:30:34.491Z,18.31
2019-03-23T11:31:38.708Z,18.65
2019-03-23T11:32:42.889Z,18.59
2019-03-23T11:33:47.163Z,18.91
2019-03-23T11:34:51.511Z,19.70
2019-03-23T11:35:58.016Z,19.63
2019-03-23T11:37:01.689Z,20.29
2019-03-23T11:38:05.948Z,19.88
2019-03-23T11:39:10.197Z,20.03
2019-03-23T11:40:14.379Z,20.28
2019-03-23T11:41:18.559Z,20.30
2019-03-23T11:42:22.766Z,20.62
2019-03-23T11:43:26.945Z,20.84
2019-03-23T11:44:31.135Z,20.85
2019-03-23T11:45:35.325Z,21.11
2019-03-23T11:46:39.508Z,21.04
2019-03-23T11:47:43.720Z,21.20
2019-03-23T11:48:47.902Z,21.37
2019-03-23T11:49:52.088Z,21.20
2019-03-23T11:50:56.273Z,21.15
2019-03-23T11:52:00.464Z,21.23
2019-03-23T11:53:04.750Z,21.07
2019-03-23T11:54:08.930Z,21.11
2019-03-23T11:55:14.191Z,21.16
2019-03-23T11:56:18.362Z,21.24
2019-03-23T11:57:22.549Z,21.42
2019-03-23T11:58:26.755Z,21.71
2019-03-23T11:59:30.950Z,21.91
2019-03-23T12:00:35.192Z,21.62
2019-03-23T12:01:39.469Z,21.42
2019-03-23T12:02:44.708Z,21.37
2019-03-23T12:03:48.965Z,21.54
2019-03-23T12:04:53.262Z,21.70
2019-03-23T12:05:57.416Z,21.84
2019-03-23T12:07:01.681Z,21.84
2019-03-23T12:08:05.868Z,21.88
2019-03-23T12:09:10.141Z,21.58
2019-03-23T12:10:14.294Z,21.32
2019-03-23T12:11:18.478Z,21.38
2019-03-23T12:12:22.658Z,21.73
2019-03-23T12:13:26.910Z,21.98
2019-03-23T12:14:31.148Z,21.93
2019-03-23T12:15:35.314Z,22.12
2019-03-23T12:16:39.502Z,22.12
2019-03-23T12:17:43.755Z,22.37
2019-03-23T12:18:47.937Z,22.34
2019-03-23T12:19:52.143Z,22.34
2019-03-23T12:20:56.445Z,22.22
2019-03-23T12:22:00.692Z,22.04
2019-03-23T12:23:04.950Z,22.15
2019-03-23T12:24:09.122Z,22.53
2019-03-23T12:25:13.301Z,22.32
2019-03-23T12:26:17.506Z,22.07
2019-03-23T12:27:21.690Z,21.89
2019-03-23T12:28:25.883Z,22.38
2019-03-23T12:29:30.063Z,25.56
2019-03-23T12:30:34.294Z,23.66
2019-03-23T12:31:38.475Z,23.78
2019-03-23T12:32:42.661Z,23.85
2019-03-23T12:33:47.805Z,22.93
2019-03-23T12:34:52.053Z,22.58
2019-03-23T12:35:56.274Z,23.32
2019-03-23T12:37:00.459Z,23.83
2019-03-23T12:38:04.705Z,23.03
2019-03-23T12:39:08.886Z,23.23
2019-03-23T12:40:13.332Z,23.16
2019-03-23T12:41:22.947Z,22.99
2019-03-23T12:42:23.487Z,22.99
2019-03-23T12:43:27.671Z,23.36
2019-03-23T12:44:31.879Z,23.56
2019-03-23T12:45:36.058Z,23.18
2019-03-23T12:46:47.906Z,23.12
2019-03-23T12:47:46.143Z,22.67
2019-03-23T12:48:50.322Z,22.92
2019-03-23T12:49:54.510Z,23.06
2019-03-23T12:50:58.705Z,22.95
2019-03-23T12:52:03.257Z,23.14
2019-03-23T12:53:07.414Z,23.17
2019-03-23T12:54:11.597Z,23.30
2019-03-23T12:55:15.770Z,23.46
2019-03-23T12:56:19.951Z,23.21
2019-03-23T12:57:24.187Z,23.46
2019-03-23T12:58:28.370Z,23.85
2019-03-23T12:59:32.549Z,23.85
2019-03-23T13:00:36.867Z,23.88
2019-03-23T13:01:41.047Z,24.07
2019-03-23T13:02:45.342Z,23.92
2019-03-23T13:03:49.551Z,23.69
2019-03-23T13:04:53.730Z,23.87
2019-03-23T13:05:57.982Z,23.60
2019-03-23T13:07:02.256Z,23.73
2019-03-23T13:08:06.554Z,23.51
2019-03-23T13:09:10.752Z,23.34
2019-03-23T13:10:15.102Z,23.46
2019-03-23T13:11:23.260Z,23.64
2019-03-23T13:12:25.246Z,23.75
2019-03-23T13:13:29.471Z,23.75
2019-03-23T13:14:33.721Z,24.36
2019-03-23T13:15:37.903Z,24.18
2019-03-23T13:16:42.082Z,24.13
2019-03-23T13:17:46.278Z,24.57
2019-03-23T13:18:50.826Z,24.54
2019-03-23T13:19:55.052Z,24.73
2019-03-23T13:20:59.250Z,24.02
2019-03-23T13:22:04.432Z,24.56
2019-03-23T13:23:08.615Z,25.02
2019-03-23T13:24:12.817Z,25.17
2019-03-23T13:25:17.122Z,24.91
2019-03-23T13:26:21.324Z,25.44
2019-03-23T13:27:25.503Z,24.97
2019-03-23T13:28:29.684Z,24.69
2019-03-23T13:29:33.866Z,24.91
2019-03-23T13:30:38.131Z,24.60
2019-03-23T13:31:42.675Z,24.78
2019-03-23T13:32:46.882Z,24.44
2019-03-23T13:33:51.062Z,24.72
2019-03-23T13:34:55.332Z,24.80
2019-03-23T13:35:59.543Z,24.37
2019-03-23T13:37:04.296Z,24.63
2019-03-23T13:38:08.483Z,24.83
2019-03-23T13:39:12.730Z,24.89
2019-03-23T13:40:16.969Z,25.03
2019-03-23T13:41:22.640Z,25.03
2019-03-23T13:42:26.785Z,24.92
2019-03-23T13:43:31.006Z,25.05
2019-03-23T13:44:35.191Z,25.06
2019-03-23T13:45:42.719Z,24.80
2019-03-23T13:46:45.252Z,24.55
2019-03-23T13:47:49.498Z,24.34
2019-03-23T13:48:53.681Z,24.60
2019-03-23T13:49:57.918Z,24.54
2019-03-23T13:51:02.184Z,24.40
2019-03-23T13:52:06.325Z,24.57
2019-03-23T13:53:10.580Z,24.79
2019-03-23T13:54:14.765Z,24.53
2019-03-23T13:55:26.622Z,23.97
2019-03-23T13:56:30.801Z,24.35
2019-03-23T13:57:34.986Z,24.61
2019-03-23T13:58:39.423Z,24.72
2019-03-23T13:59:43.607Z,24.57
2019-03-23T14:00:47.858Z,24.84
2019-03-23T14:01:51.999Z,24.76
2019-03-23T14:02:56.187Z,24.58
2019-03-23T14:04:00.409Z,24.92
2019-03-23T14:05:12.176Z,24.98
2019-03-23T14:06:11.538Z,25.02
2019-03-23T14:07:15.719Z,24.52
2019-03-23T14:08:19.915Z,24.52
2019-03-23T14:09:24.122Z,24.95
2019-03-23T14:10:28.291Z,24.91
2019-03-23T14:11:32.471Z,24.87
2019-03-23T14:12:36.647Z,24.92
2019-03-23T14:13:40.859Z,25.24
2019-03-23T14:14:45.038Z,25.30
2019-03-23T14:15:49.221Z,25.16
2019-03-23T14:16:53.398Z,24.72
2019-03-23T14:17:57.586Z,24.96
2019-03-23T14:19:01.879Z,24.77
2019-03-23T14:20:06.526Z,24.75
2019-03-23T14:21:11.034Z,25.03
2019-03-23T14:22:15.215Z,25.08
2019-03-23T14:23:19.405Z,25.20